createdAt,value
2022-09-13T00:00:28.789Z,2.77
2022-09-13T00:01:30.317Z,2.90
2022-09-13T00:02:32.394Z,2.63
2022-09-13T00:03:34.147Z,2.90
2022-09-13T00:04:35.970Z,2.50
2022-09-13T00:05:38.878Z,5.97
2022-09-13T00:06:40.592Z,2.53
2022-09-13T00:07:41.977Z,2.40
2022-09-13T00:08:44.103Z,2.60
2022-09-13T00:09:45.568Z,2.23
2022-09-13T00:10:47.970Z,2.63
2022-09-13T00:11:49.648Z,2.43
2022-09-13T00:12:52.025Z,2.83
2022-09-13T00:13:55.137Z,2.27
2022-09-13T00:14:57.091Z,2.80
2022-09-13T00:16:01.131Z,2.90
2022-09-13T00:17:02.725Z,2.77
2022-09-13T00:18:04.279Z,2.40
2022-09-13T00:19:05.749Z,2.53
2022-09-13T00:20:08.899Z,2.80
2022-09-13T00:21:14.486Z,2.87
2022-09-13T00:22:15.979Z,2.83
2022-09-13T00:23:17.461Z,2.97
2022-09-13T00:24:18.923Z,2.63
2022-09-13T00:25:21.199Z,2.70
2022-09-13T00:26:26.337Z,2.60
2022-09-13T00:27:28.161Z,2.50
2022-09-13T00:28:29.614Z,3.03
2022-09-13T00:29:31.182Z,2.90
2022-09-13T00:30:33.424Z,2.67
2022-09-13T00:31:35.443Z,3.30
2022-09-13T00:32:37.586Z,2.50
2022-09-13T00:33:39.314Z,2.50
2022-09-13T00:34:41.071Z,2.83
2022-09-13T00:35:42.537Z,2.70
2022-09-13T00:36:44.142Z,2.83
2022-09-13T00:37:46.142Z,2.53
2022-09-13T00:38:47.653Z,2.70
2022-09-13T00:39:49.995Z,2.73
2022-09-13T00:40:51.523Z,2.57
2022-09-13T00:41:53.113Z,2.90
2022-09-13T00:42:55.116Z,2.53
2022-09-13T00:43:59.086Z,3.00
2022-09-13T00:45:11.049Z,2.67
2022-09-13T00:46:27.708Z,3.00
2022-09-13T00:47:47.969Z,2.40
2022-09-13T00:48:53.048Z,2.67
2022-09-13T00:50:01.189Z,3.17
2022-09-13T00:51:04.964Z,3.00
2022-09-13T00:52:13.873Z,2.97
2022-09-13T00:53:25.085Z,2.77
2022-09-13T00:54:31.056Z,2.90
2022-09-13T00:55:42.992Z,3.03
2022-09-13T00:56:50.620Z,2.40
2022-09-13T00:57:53.769Z,2.43
2022-09-13T00:59:01.238Z,3.07
2022-09-13T01:00:13.516Z,2.77
2022-09-13T01:01:16.824Z,2.70
2022-09-13T01:02:19.610Z,3.23
2022-09-13T01:03:25.012Z,2.73
2022-09-13T01:04:29.034Z,2.90
2022-09-13T01:05:37.210Z,2.80
2022-09-13T01:06:40.636Z,3.10
2022-09-13T01:07:42.626Z,2.80
2022-09-13T01:08:48.606Z,2.90
2022-09-13T01:09:52.344Z,3.90
2022-09-13T01:10:56.524Z,2.80
2022-09-13T01:12:26.229Z,2.43
2022-09-13T01:13:32.273Z,2.60
2022-09-13T01:14:34.575Z,2.37
2022-09-13T01:15:36.347Z,2.90
2022-09-13T01:16:38.102Z,2.50
2022-09-13T01:17:40.267Z,2.63
2022-09-13T01:18:41.718Z,3.00
2022-09-13T01:19:43.180Z,2.67
2022-09-13T01:21:28.811Z,2.90
2022-09-13T01:22:39.048Z,2.70
2022-09-13T01:24:05.756Z,2.60
2022-09-13T01:25:07.143Z,2.77
2022-09-13T01:26:26.521Z,4.57
2022-09-13T01:27:43.083Z,2.80
2022-09-13T01:29:02.803Z,2.70
2022-09-13T01:30:29.327Z,2.53
2022-09-13T01:31:43.590Z,2.70
2022-09-13T01:33:09.314Z,2.57
2022-09-13T01:34:39.278Z,2.37
2022-09-13T01:36:21.794Z,2.90
2022-09-13T01:37:41.779Z,2.63
2022-09-13T01:39:31.042Z,2.93
2022-09-13T01:40:50.698Z,2.80
2022-09-13T01:41:54.863Z,2.90
2022-09-13T01:43:12.976Z,2.73
2022-09-13T01:44:37.007Z,3.10
2022-09-13T01:45:41.511Z,3.00
2022-09-13T01:47:06.424Z,2.63
2022-09-13T01:48:34.323Z,2.60
2022-09-13T01:49:55.751Z,2.63
2022-09-13T01:51:06.742Z,2.80
2022-09-13T01:52:10.838Z,2.97
2022-09-13T01:53:27.611Z,2.73
2022-09-13T01:54:57.829Z,2.57
2022-09-13T01:56:08.166Z,3.00
2022-09-13T01:57:26.228Z,2.67
2022-09-13T01:58:40.838Z,2.47
2022-09-13T02:00:00.130Z,2.87
2022-09-13T02:01:04.951Z,2.87
2022-09-13T02:02:16.147Z,3.20
2022-09-13T02:03:23.938Z,2.90
2022-09-13T02:04:36.696Z,2.80
2022-09-13T02:05:47.864Z,2.70
2022-09-13T02:06:57.931Z,2.90
2022-09-13T02:08:09.969Z,3.10
2022-09-13T02:09:21.426Z,2.73
2022-09-13T02:10:30.429Z,2.90
2022-09-13T02:11:33.593Z,2.73
2022-09-13T02:12:37.621Z,3.00
2022-09-13T02:13:52.034Z,2.97
2022-09-13T02:15:02.748Z,2.67
2022-09-13T02:16:16.566Z,3.07
2022-09-13T02:17:23.158Z,2.87
2022-09-13T02:18:31.734Z,3.23
2022-09-13T02:19:49.506Z,2.90
2022-09-13T02:20:53.590Z,3.20
2022-09-13T02:21:59.663Z,2.70
2022-09-13T02:23:05.676Z,3.37
2022-09-13T02:24:11.354Z,3.20
2022-09-13T02:25:17.425Z,3.07
2022-09-13T02:26:21.320Z,2.70
2022-09-13T02:27:27.882Z,3.20
2022-09-13T02:28:36.572Z,3.10
2022-09-13T02:29:42.600Z,2.70
2022-09-13T02:30:50.727Z,3.33
2022-09-13T02:32:00.440Z,2.77
2022-09-13T02:33:07.122Z,2.70
2022-09-13T02:34:14.290Z,2.77
2022-09-13T02:35:32.346Z,2.93
2022-09-13T02:36:40.880Z,2.67
2022-09-13T02:37:47.190Z,2.70
2022-09-13T02:39:01.180Z,2.87
2022-09-13T02:40:07.470Z,2.90
2022-09-13T02:41:33.780Z,4.67
2022-09-13T02:42:42.199Z,3.00
2022-09-13T02:43:55.808Z,2.93
2022-09-13T02:45:02.290Z,3.03
2022-09-13T02:46:32.288Z,3.10
2022-09-13T02:47:41.560Z,3.40
2022-09-13T02:48:48.850Z,2.90
2022-09-13T02:50:02.690Z,3.07
2022-09-13T02:51:52.372Z,3.37
2022-09-13T02:52:54.417Z,2.87
2022-09-13T02:54:15.670Z,2.90
2022-09-13T02:55:23.442Z,2.77
2022-09-13T02:56:50.701Z,2.97
2022-09-13T02:58:34.493Z,3.20
2022-09-13T02:59:36.781Z,3.20
2022-09-13T03:00:39.197Z,3.20
2022-09-13T03:01:45.165Z,3.00
2022-09-13T03:02:48.593Z,3.23
2022-09-13T03:03:53.419Z,3.20
2022-09-13T03:04:55.215Z,3.30
2022-09-13T03:05:57.172Z,3.13
2022-09-13T03:06:58.583Z,3.43
2022-09-13T03:08:02.889Z,3.00
2022-09-13T03:09:06.950Z,2.77
2022-09-13T03:10:13.141Z,3.10
2022-09-13T03:12:00.380Z,3.10
2022-09-13T03:13:18.435Z,2.87
2022-09-13T03:14:23.234Z,3.13
2022-09-13T03:16:00.374Z,2.90
2022-09-13T03:17:18.984Z,3.17
2022-09-13T03:18:38.277Z,2.83
2022-09-13T03:20:01.020Z,3.07
2022-09-13T03:21:21.197Z,3.10
2022-09-13T03:22:34.964Z,2.83
2022-09-13T03:23:42.394Z,2.70
2022-09-13T03:25:28.330Z,2.80
2022-09-13T03:27:10.519Z,2.90
2022-09-13T03:28:31.165Z,3.27
2022-09-13T03:29:42.731Z,3.40
2022-09-13T03:30:50.976Z,3.00
2022-09-13T03:32:08.244Z,2.53
2022-09-13T03:33:10.037Z,3.10
2022-09-13T03:34:44.625Z,3.30
2022-09-13T03:36:01.563Z,2.80
2022-09-13T03:37:23.707Z,3.07
2022-09-13T03:38:32.256Z,2.87
2022-09-13T03:40:06.995Z,2.90
2022-09-13T03:41:11.437Z,3.20
2022-09-13T03:42:23.353Z,2.80
2022-09-13T03:43:39.331Z,2.67
2022-09-13T03:44:42.492Z,3.13
2022-09-13T03:45:52.342Z,3.10
2022-09-13T03:46:57.961Z,3.30
2022-09-13T03:48:00.952Z,2.80
2022-09-13T03:49:10.621Z,3.00
2022-09-13T03:50:18.147Z,2.73
2022-09-13T03:51:19.881Z,3.80
2022-09-13T03:52:21.572Z,3.20
2022-09-13T03:53:28.475Z,3.00
2022-09-13T03:54:32.497Z,3.00
2022-09-13T03:55:38.651Z,3.00
2022-09-13T03:56:40.941Z,3.13
2022-09-13T03:57:42.424Z,3.10
2022-09-13T03:58:44.314Z,3.53
2022-09-13T03:59:54.575Z,3.27
2022-09-13T04:00:57.372Z,3.40
2022-09-13T04:01:59.973Z,3.20
2022-09-13T04:03:01.728Z,3.10
2022-09-13T04:04:03.449Z,3.10
2022-09-13T04:05:05.537Z,3.17
2022-09-13T04:06:07.680Z,3.13
2022-09-13T04:07:11.532Z,3.03
2022-09-13T04:08:13.024Z,3.00
2022-09-13T04:09:14.863Z,3.07
2022-09-13T04:10:16.369Z,3.37
2022-09-13T04:11:17.976Z,2.83
2022-09-13T04:12:19.832Z,3.30
2022-09-13T04:13:22.488Z,3.23
2022-09-13T04:14:26.780Z,3.97
2022-09-13T04:15:30.906Z,3.50
2022-09-13T04:16:32.476Z,3.10
2022-09-13T04:17:34.287Z,3.80
2022-09-13T04:18:36.178Z,2.90
2022-09-13T04:19:37.787Z,3.30
2022-09-13T04:20:39.373Z,3.20
2022-09-13T04:21:41.055Z,3.27
2022-09-13T04:22:42.763Z,3.60
2022-09-13T04:23:44.320Z,3.30
2022-09-13T04:24:46.106Z,3.33
2022-09-13T04:25:47.855Z,3.63
2022-09-13T04:26:51.244Z,3.17
2022-09-13T04:27:56.501Z,3.37
2022-09-13T04:28:58.101Z,3.40
2022-09-13T04:29:59.488Z,3.50
2022-09-13T04:31:00.998Z,3.73
2022-09-13T04:32:02.710Z,3.67
2022-09-13T04:33:04.221Z,3.07
2022-09-13T04:34:06.570Z,3.53
2022-09-13T04:35:09.256Z,3.57
2022-09-13T04:36:10.674Z,3.63
2022-09-13T04:37:12.154Z,3.67
2022-09-13T04:38:13.657Z,3.80
2022-09-13T04:39:15.243Z,3.50
2022-09-13T04:40:16.805Z,3.47
2022-09-13T04:41:18.325Z,3.53
2022-09-13T04:42:19.832Z,3.57
2022-09-13T04:43:21.654Z,4.40
2022-09-13T04:44:24.231Z,3.27
2022-09-13T04:45:25.766Z,3.50
2022-09-13T04:46:27.997Z,3.60
2022-09-13T04:47:29.544Z,4.20
2022-09-13T04:48:31.078Z,3.93
2022-09-13T04:49:32.558Z,3.30
2022-09-13T04:50:33.987Z,3.10
2022-09-13T04:51:37.482Z,3.43
2022-09-13T04:52:39.500Z,3.50
2022-09-13T04:53:40.915Z,3.97
2022-09-13T04:54:42.576Z,3.47
2022-09-13T04:55:44.409Z,3.93
2022-09-13T04:56:47.080Z,4.07
2022-09-13T04:57:53.850Z,3.60
2022-09-13T04:58:56.371Z,3.97
2022-09-13T04:59:57.833Z,3.40
2022-09-13T05:01:07.037Z,3.63
2022-09-13T05:02:08.524Z,3.47
2022-09-13T05:03:10.055Z,3.20
2022-09-13T05:04:11.946Z,3.30
2022-09-13T05:05:13.655Z,4.07
2022-09-13T05:06:20.957Z,4.10
2022-09-13T05:07:22.637Z,4.10
2022-09-13T05:08:24.028Z,3.70
2022-09-13T05:09:25.646Z,4.10
2022-09-13T05:10:27.440Z,3.97
2022-09-13T05:11:29.690Z,3.93
2022-09-13T05:12:31.838Z,3.83
2022-09-13T05:13:33.699Z,3.43
2022-09-13T05:14:35.498Z,3.40
2022-09-13T05:15:37.020Z,3.70
2022-09-13T05:16:38.879Z,3.63
2022-09-13T05:17:40.313Z,3.53
2022-09-13T05:18:45.131Z,3.67
2022-09-13T05:19:46.798Z,3.80
2022-09-13T05:20:48.288Z,3.70
2022-09-13T05:21:50.500Z,3.60
2022-09-13T05:22:51.907Z,3.70
2022-09-13T05:23:54.173Z,4.00
2022-09-13T05:24:56.285Z,3.70
2022-09-13T05:26:00.454Z,3.77
2022-09-13T05:27:02.374Z,4.07
2022-09-13T05:28:03.827Z,3.77
2022-09-13T05:29:05.808Z,3.93
2022-09-13T05:30:07.645Z,3.50
2022-09-13T05:31:24.976Z,3.87
2022-09-13T05:32:26.422Z,3.40
2022-09-13T05:33:30.111Z,3.80
2022-09-13T05:34:31.837Z,3.90
2022-09-13T05:35:33.583Z,3.63
2022-09-13T05:36:35.102Z,4.20
2022-09-13T05:37:36.507Z,3.80
2022-09-13T05:38:38.252Z,3.73
2022-09-13T05:40:07.316Z,3.90
2022-09-13T05:41:03.471Z,3.93
2022-09-13T05:42:05.261Z,4.00
2022-09-13T05:43:07.020Z,3.80
2022-09-13T05:44:13.273Z,4.03
2022-09-13T05:45:15.527Z,3.93
2022-09-13T05:46:19.720Z,3.77
2022-09-13T05:47:21.722Z,4.00
2022-09-13T05:48:23.305Z,3.67
2022-09-13T05:49:25.225Z,3.20
2022-09-13T05:50:56.451Z,3.63
2022-09-13T05:51:48.523Z,3.70
2022-09-13T05:52:54.521Z,3.53
2022-09-13T05:53:57.002Z,3.50
2022-09-13T05:54:58.771Z,4.20
2022-09-13T05:56:00.937Z,3.27
2022-09-13T05:57:02.475Z,3.47
2022-09-13T05:58:04.296Z,3.73
2022-09-13T05:59:06.184Z,3.00
2022-09-13T06:00:08.295Z,3.73
2022-09-13T06:01:25.055Z,3.50
2022-09-13T06:02:26.649Z,4.00
2022-09-13T06:03:28.219Z,3.83
2022-09-13T06:04:29.712Z,3.70
2022-09-13T06:05:32.082Z,3.50
2022-09-13T06:06:35.690Z,3.50
2022-09-13T06:07:39.468Z,3.73
2022-09-13T06:08:41.601Z,3.23
2022-09-13T06:09:43.033Z,3.23
2022-09-13T06:10:53.982Z,3.20
2022-09-13T06:11:55.639Z,3.77
2022-09-13T06:12:57.066Z,3.57
2022-09-13T06:13:58.975Z,3.13
2022-09-13T06:15:00.376Z,3.30
2022-09-13T06:16:04.500Z,3.30
2022-09-13T06:17:06.072Z,3.33
2022-09-13T06:18:07.878Z,3.50
2022-09-13T06:19:09.352Z,3.53
2022-09-13T06:20:11.018Z,3.27
2022-09-13T06:21:18.335Z,3.23
2022-09-13T06:22:19.914Z,3.80
2022-09-13T06:23:21.371Z,3.27
2022-09-13T06:24:22.798Z,3.70
2022-09-13T06:25:24.196Z,3.47
2022-09-13T06:26:28.040Z,3.50
2022-09-13T06:27:31.062Z,3.53
2022-09-13T06:28:36.754Z,3.43
2022-09-13T06:29:39.645Z,3.00
2022-09-13T06:30:41.080Z,3.47
2022-09-13T06:31:45.205Z,3.03
2022-09-13T06:32:46.976Z,3.20
2022-09-13T06:33:49.071Z,3.00
2022-09-13T06:34:50.727Z,3.27
2022-09-13T06:35:52.208Z,2.97
2022-09-13T06:36:53.944Z,3.53
2022-09-13T06:37:57.779Z,3.50
2022-09-13T06:39:00.658Z,3.23
2022-09-13T06:40:04.992Z,3.60
2022-09-13T06:41:09.984Z,3.00
2022-09-13T06:42:11.849Z,3.57
2022-09-13T06:43:16.209Z,3.13
2022-09-13T06:44:17.640Z,3.40
2022-09-13T06:45:19.127Z,3.47
2022-09-13T06:46:24.926Z,3.53
2022-09-13T06:47:26.901Z,3.17
2022-09-13T06:48:31.343Z,3.53
2022-09-13T06:49:58.723Z,3.57
2022-09-13T06:51:05.348Z,3.80
2022-09-13T06:52:06.778Z,3.77
2022-09-13T06:53:08.456Z,3.50
2022-09-13T06:54:09.990Z,3.20
2022-09-13T06:55:12.804Z,3.60
2022-09-13T06:56:17.359Z,3.53
2022-09-13T06:57:18.775Z,3.17
2022-09-13T06:58:20.245Z,3.40
2022-09-13T06:59:21.828Z,3.23
2022-09-13T07:00:23.342Z,3.70
2022-09-13T07:01:28.035Z,3.53
2022-09-13T07:02:29.942Z,3.30
2022-09-13T07:03:31.356Z,3.30
2022-09-13T07:04:32.878Z,3.50
2022-09-13T07:05:34.383Z,3.13
2022-09-13T07:06:38.443Z,3.17
2022-09-13T07:07:40.193Z,3.40
2022-09-13T07:08:43.476Z,3.50
2022-09-13T07:09:44.923Z,3.80
2022-09-13T07:10:46.398Z,3.70
2022-09-13T07:11:53.185Z,3.70
2022-09-13T07:12:54.764Z,3.80
2022-09-13T07:13:58.636Z,3.60
2022-09-13T07:15:00.042Z,3.50
2022-09-13T07:16:03.690Z,3.40
2022-09-13T07:17:05.118Z,3.57
2022-09-13T07:18:08.186Z,3.90
2022-09-13T07:19:18.576Z,3.40
2022-09-13T07:20:23.678Z,3.33
2022-09-13T07:21:26.178Z,3.57
2022-09-13T07:22:28.177Z,3.30
2022-09-13T07:23:31.766Z,3.47
2022-09-13T07:24:33.274Z,4.63
2022-09-13T07:25:34.776Z,3.50
2022-09-13T07:26:36.497Z,4.27
2022-09-13T07:27:38.102Z,4.10
2022-09-13T07:28:42.061Z,3.47
2022-09-13T07:29:43.483Z,3.97
2022-09-13T07:30:45.154Z,3.73
2022-09-13T07:31:48.839Z,3.40
2022-09-13T07:32:50.248Z,3.83
2022-09-13T07:33:57.276Z,3.60
2022-09-13T07:34:58.686Z,3.63
2022-09-13T07:36:02.142Z,3.20
2022-09-13T07:37:03.603Z,3.73
2022-09-13T07:38:04.997Z,4.00
2022-09-13T07:39:08.270Z,3.47
2022-09-13T07:40:13.992Z,3.93
2022-09-13T07:41:18.275Z,3.90
2022-09-13T07:42:19.665Z,3.83
2022-09-13T07:43:22.012Z,3.87
2022-09-13T07:44:23.408Z,3.77
2022-09-13T07:45:24.931Z,4.13
2022-09-13T07:46:28.576Z,3.73
2022-09-13T07:47:33.698Z,3.70
2022-09-13T07:48:38.415Z,3.67
2022-09-13T07:49:40.018Z,4.07
2022-09-13T07:50:41.472Z,4.53
2022-09-13T07:51:44.099Z,4.00
2022-09-13T07:52:46.120Z,4.20
2022-09-13T07:53:52.615Z,4.40
2022-09-13T07:54:59.055Z,4.23
2022-09-13T07:56:11.843Z,5.00
2022-09-13T07:57:13.452Z,4.30
2022-09-13T07:58:15.236Z,3.90
2022-09-13T07:59:17.714Z,4.03
2022-09-13T08:00:19.389Z,4.00
2022-09-13T08:01:50.822Z,4.17
2022-09-13T08:02:52.433Z,4.13
2022-09-13T08:03:59.751Z,4.03
2022-09-13T08:05:01.490Z,3.63
2022-09-13T08:06:04.782Z,4.30
2022-09-13T08:07:06.463Z,3.90
2022-09-13T08:08:08.008Z,4.37
2022-09-13T08:09:10.572Z,4.60
2022-09-13T08:10:12.047Z,4.10
2022-09-13T08:11:18.405Z,4.27
2022-09-13T08:12:20.206Z,3.80
2022-09-13T08:13:21.995Z,3.80
2022-09-13T08:14:24.076Z,4.20
2022-09-13T08:15:26.658Z,3.97
2022-09-13T08:16:30.031Z,3.80
2022-09-13T08:17:31.679Z,4.00
2022-09-13T08:18:33.915Z,3.90
2022-09-13T08:19:37.624Z,3.50
2022-09-13T08:20:40.175Z,4.13
2022-09-13T08:21:42.495Z,4.03
2022-09-13T08:22:43.987Z,3.57
2022-09-13T08:23:46.070Z,3.80
2022-09-13T08:24:47.520Z,3.40
2022-09-13T08:25:48.954Z,3.80
2022-09-13T08:26:52.404Z,3.40
2022-09-13T08:27:53.830Z,4.10
2022-09-13T08:29:00.450Z,4.00
2022-09-13T08:30:02.547Z,3.93
2022-09-13T08:31:17.110Z,4.00
2022-09-13T08:32:18.889Z,3.80
2022-09-13T08:33:20.612Z,4.07
2022-09-13T08:34:22.377Z,4.10
2022-09-13T08:35:23.882Z,4.43
2022-09-13T08:36:27.405Z,4.17
2022-09-13T08:37:29.067Z,3.87
2022-09-13T08:38:31.093Z,4.40
2022-09-13T08:39:33.677Z,4.17
2022-09-13T08:40:41.783Z,4.30
2022-09-13T08:41:45.270Z,4.00
2022-09-13T08:42:56.617Z,3.90
2022-09-13T08:44:09.213Z,3.70
2022-09-13T08:45:10.930Z,3.80
2022-09-13T08:46:41.808Z,3.90
2022-09-13T08:48:02.092Z,7.00
2022-09-13T08:49:22.994Z,4.73
2022-09-13T08:50:36.779Z,4.10
2022-09-13T08:51:44.927Z,4.10
2022-09-13T08:52:58.666Z,4.20
2022-09-13T08:54:04.695Z,5.90
2022-09-13T08:55:26.351Z,4.40
2022-09-13T08:56:46.421Z,4.03
2022-09-13T08:57:55.394Z,4.45
2022-09-13T08:59:32.377Z,4.67
2022-09-13T09:00:39.657Z,4.43
2022-09-13T09:01:53.202Z,4.60
2022-09-13T09:03:38.595Z,4.28
2022-09-13T09:05:04.379Z,4.40
2022-09-13T09:06:12.586Z,4.07
2022-09-13T09:07:26.889Z,4.28
2022-09-13T09:08:35.905Z,4.18
2022-09-13T09:09:46.025Z,4.40
2022-09-13T09:10:51.241Z,4.18
2022-09-13T09:11:59.569Z,4.57
2022-09-13T09:13:14.050Z,4.60
2022-09-13T09:14:23.397Z,4.03
2022-09-13T09:15:29.908Z,3.70
2022-09-13T09:16:46.286Z,4.25
2022-09-13T09:17:59.985Z,4.60
2022-09-13T09:19:18.810Z,4.10
2022-09-13T09:20:34.164Z,3.90
2022-09-13T09:21:36.954Z,3.70
2022-09-13T09:22:38.708Z,4.10
2022-09-13T09:24:01.605Z,3.95
2022-09-13T09:25:04.010Z,3.70
2022-09-13T09:26:21.185Z,4.43
2022-09-13T09:27:23.493Z,4.28
2022-09-13T09:28:26.851Z,4.80
2022-09-13T09:29:32.708Z,4.53
2022-09-13T09:30:47.867Z,4.35
2022-09-13T09:31:59.151Z,5.60
2022-09-13T09:33:18.353Z,4.20
2022-09-13T09:34:42.882Z,4.70
2022-09-13T09:36:03.138Z,4.82
2022-09-13T09:37:08.303Z,3.85
2022-09-13T09:38:32.665Z,5.00
2022-09-13T09:39:38.957Z,4.25
2022-09-13T09:40:46.613Z,3.90
2022-09-13T09:41:48.297Z,3.50
2022-09-13T09:42:50.864Z,3.70
2022-09-13T09:44:13.636Z,4.10
2022-09-13T09:45:21.271Z,3.85
2022-09-13T09:46:27.529Z,4.03
2022-09-13T09:47:34.317Z,4.07
2022-09-13T09:48:45.455Z,4.10
2022-09-13T09:50:09.233Z,4.28
2022-09-13T09:51:14.031Z,4.25
2022-09-13T09:52:19.459Z,4.10
2022-09-13T09:53:31.601Z,3.92
2022-09-13T09:54:39.014Z,3.70
2022-09-13T09:55:51.976Z,4.47
2022-09-13T09:56:55.760Z,3.70
2022-09-13T09:58:04.513Z,3.50
2022-09-13T09:59:26.780Z,4.38
2022-09-13T10:00:35.305Z,4.03
2022-09-13T10:01:38.635Z,4.28
2022-09-13T10:02:44.657Z,4.30
2022-09-13T10:04:10.925Z,4.45
2022-09-13T10:05:13.450Z,3.95
2022-09-13T10:06:19.918Z,3.63
2022-09-13T10:07:32.625Z,4.00
2022-09-13T10:08:37.467Z,4.20
2022-09-13T10:09:39.703Z,4.00
2022-09-13T10:10:52.974Z,3.70
2022-09-13T10:11:57.534Z,4.22
2022-09-13T10:12:59.695Z,3.83
2022-09-13T10:14:03.216Z,3.55
2022-09-13T10:15:26.570Z,4.00
2022-09-13T10:16:30.746Z,3.88
2022-09-13T10:17:32.245Z,4.28
2022-09-13T10:18:46.385Z,4.07
2022-09-13T10:20:03.905Z,3.88
2022-09-13T10:21:20.305Z,3.83
2022-09-13T10:22:23.007Z,3.40
2022-09-13T10:23:24.392Z,4.32
2022-09-13T10:24:27.337Z,4.32
2022-09-13T10:25:29.445Z,3.28
2022-09-13T10:26:33.887Z,3.60
2022-09-13T10:27:42.245Z,4.15
2022-09-13T10:29:05.806Z,3.70
2022-09-13T10:30:08.112Z,3.97
2022-09-13T10:31:17.119Z,4.22
2022-09-13T10:32:19.855Z,3.53
2022-09-13T10:33:32.021Z,3.95
2022-09-13T10:34:36.881Z,3.75
2022-09-13T10:35:38.427Z,3.63
2022-09-13T10:36:56.454Z,3.85
2022-09-13T10:37:58.023Z,4.10
2022-09-13T10:39:12.674Z,3.58
2022-09-13T10:40:38.454Z,3.85
2022-09-13T10:41:42.800Z,4.32
2022-09-13T10:42:54.984Z,3.90
2022-09-13T10:43:59.026Z,3.72
2022-09-13T10:45:04.030Z,3.83
2022-09-13T10:46:14.274Z,4.13
2022-09-13T10:47:43.696Z,4.32
2022-09-13T10:48:59.116Z,3.53
2022-09-13T10:50:17.737Z,3.83
2022-09-13T10:51:35.773Z,3.83
2022-09-13T10:52:51.771Z,3.47
2022-09-13T10:54:10.686Z,3.55
2022-09-13T10:55:34.098Z,3.70
2022-09-13T10:56:35.586Z,3.45
2022-09-13T10:57:38.232Z,3.13
2022-09-13T10:58:39.833Z,3.55
2022-09-13T10:59:41.226Z,3.70
2022-09-13T11:01:04.271Z,3.50
2022-09-13T11:02:13.643Z,3.33
2022-09-13T11:03:27.278Z,3.53
2022-09-13T11:04:56.758Z,3.70
2022-09-13T11:06:24.520Z,3.47
2022-09-13T11:07:41.178Z,3.30
2022-09-13T11:09:07.146Z,3.20
2022-09-13T11:10:11.625Z,2.97
2022-09-13T11:11:50.949Z,3.47
2022-09-13T11:13:07.495Z,2.90
2022-09-13T11:14:38.627Z,3.40
2022-09-13T11:16:19.688Z,3.63
2022-09-13T11:17:21.160Z,3.80
2022-09-13T11:18:41.500Z,3.55
2022-09-13T11:20:05.170Z,3.20
2022-09-13T11:21:30.131Z,3.42
2022-09-13T11:23:09.863Z,3.38
2022-09-13T11:24:44.540Z,3.38
2022-09-13T11:26:01.022Z,4.00
2022-09-13T11:27:06.141Z,2.97
2022-09-13T11:28:16.417Z,3.67
2022-09-13T11:29:36.847Z,3.83
2022-09-13T11:31:04.744Z,3.90
2022-09-13T11:32:14.750Z,3.25
2022-09-13T11:33:49.827Z,3.45
2022-09-13T11:35:29.869Z,3.50
2022-09-13T11:36:50.033Z,3.80
2022-09-13T11:38:29.597Z,4.10
2022-09-13T11:39:43.729Z,4.38
2022-09-13T11:41:00.123Z,3.53
2022-09-13T11:42:19.480Z,3.60
2022-09-13T11:43:48.861Z,3.72
2022-09-13T11:45:12.589Z,3.83
2022-09-13T11:46:40.486Z,3.95
2022-09-13T11:48:18.882Z,3.65
2022-09-13T11:49:23.905Z,3.72
2022-09-13T11:50:46.334Z,3.75
2022-09-13T11:51:58.808Z,3.70
2022-09-13T11:53:03.326Z,3.70
2022-09-13T11:54:31.817Z,3.80
2022-09-13T11:56:02.677Z,3.20
2022-09-13T11:57:09.998Z,3.80
2022-09-13T11:58:16.379Z,4.03
2022-09-13T11:59:32.898Z,3.60
2022-09-13T12:01:02.297Z,4.05
2022-09-13T12:02:40.557Z,3.63
2022-09-13T12:04:02.819Z,3.50
2022-09-13T12:05:22.616Z,3.47
2022-09-13T12:06:35.648Z,3.70
2022-09-13T12:08:10.836Z,3.47
2022-09-13T12:09:36.319Z,3.50
2022-09-13T12:11:02.592Z,3.70
2022-09-13T12:12:07.840Z,3.60
2022-09-13T12:13:18.693Z,3.33
2022-09-13T12:14:27.601Z,3.33
2022-09-13T12:15:42.407Z,3.28
2022-09-13T12:16:48.746Z,3.80
2022-09-13T12:17:56.533Z,3.97
2022-09-13T12:19:02.198Z,3.60
2022-09-13T12:20:07.351Z,3.63
2022-09-13T12:21:12.533Z,3.42
2022-09-13T12:22:15.646Z,3.78
2022-09-13T12:23:53.486Z,3.55
2022-09-13T12:24:58.248Z,3.30
2022-09-13T12:26:13.748Z,3.53
2022-09-13T12:27:23.868Z,3.28
2022-09-13T12:28:39.833Z,3.40
2022-09-13T12:29:56.612Z,3.10
2022-09-13T12:31:07.418Z,3.10
2022-09-13T12:32:10.452Z,3.60
2022-09-13T12:33:16.011Z,5.18
2022-09-13T12:34:33.038Z,3.22
2022-09-13T12:36:03.705Z,3.30
2022-09-13T12:37:39.335Z,2.85
2022-09-13T12:38:49.455Z,3.03
2022-09-13T12:40:00.163Z,3.20
2022-09-13T12:41:07.936Z,3.50
2022-09-13T12:42:18.171Z,3.03
2022-09-13T12:44:14.626Z,2.92
2022-09-13T12:45:43.658Z,3.35
2022-09-13T12:47:22.980Z,3.17
2022-09-13T12:48:52.818Z,3.17
2022-09-13T12:52:11.461Z,3.25
2022-09-13T12:53:27.402Z,3.50
2022-09-13T12:54:48.013Z,3.40
2022-09-13T12:56:13.666Z,4.15
2022-09-13T12:57:25.804Z,3.20
2022-09-13T12:59:01.149Z,3.55
2022-09-13T13:00:12.648Z,3.45
2022-09-13T13:01:26.119Z,3.53
2022-09-13T13:02:33.004Z,3.63
2022-09-13T13:03:43.595Z,3.70
2022-09-13T13:04:54.413Z,3.90
2022-09-13T13:06:09.098Z,5.00
2022-09-13T13:07:21.682Z,6.03
2022-09-13T13:08:23.067Z,4.85
2022-09-13T13:09:53.688Z,3.60
2022-09-13T13:11:13.972Z,4.13
2022-09-13T13:12:33.443Z,3.88
2022-09-13T13:13:59.030Z,4.18
2022-09-13T13:15:06.389Z,4.28
2022-09-13T13:16:30.800Z,3.80
2022-09-13T13:17:52.950Z,4.40
2022-09-13T13:18:59.321Z,4.22
2022-09-13T13:20:21.280Z,4.35
2022-09-13T13:21:28.639Z,4.35
2022-09-13T13:23:03.937Z,3.78
2022-09-13T13:24:17.452Z,3.72
2022-09-13T13:25:39.174Z,4.15
2022-09-13T13:26:43.592Z,3.63
2022-09-13T13:27:48.552Z,3.97
2022-09-13T13:29:04.707Z,3.85
2022-09-13T13:30:42.708Z,3.78
2022-09-13T13:32:09.331Z,3.67
2022-09-13T13:33:23.830Z,3.95
2022-09-13T13:34:42.365Z,3.65
2022-09-13T13:35:44.149Z,3.85
2022-09-13T13:36:49.018Z,3.60
2022-09-13T13:37:50.864Z,3.60
2022-09-13T13:38:57.067Z,3.40
2022-09-13T13:40:22.869Z,3.78
2022-09-13T13:41:33.723Z,3.25
2022-09-13T13:42:38.678Z,3.88
2022-09-13T13:43:40.272Z,3.75
2022-09-13T13:44:42.020Z,3.80
2022-09-13T13:46:15.842Z,3.75
2022-09-13T13:47:20.193Z,3.50
2022-09-13T13:48:37.220Z,3.90
2022-09-13T13:49:38.742Z,3.95
2022-09-13T13:51:17.581Z,3.63
2022-09-13T13:52:22.432Z,3.60
2022-09-13T13:53:36.164Z,4.05
2022-09-13T13:54:47.353Z,3.78
2022-09-13T13:56:05.317Z,3.72
2022-09-13T13:57:25.740Z,3.30
2022-09-13T13:58:46.006Z,3.75
2022-09-13T13:59:50.497Z,3.20
2022-09-13T14:00:55.112Z,3.47
2022-09-13T14:02:01.564Z,3.50
2022-09-13T14:03:03.137Z,3.35
2022-09-13T14:04:10.445Z,3.78
2022-09-13T14:05:43.101Z,3.63
2022-09-13T14:06:53.698Z,3.60
2022-09-13T14:08:19.224Z,3.88
2022-09-13T14:09:33.009Z,3.40
2022-09-13T14:10:49.738Z,3.63
2022-09-13T14:12:12.817Z,3.50
2022-09-13T14:13:39.566Z,3.35
2022-09-13T14:14:51.587Z,3.53
2022-09-13T14:16:17.829Z,3.85
2022-09-13T14:17:25.421Z,3.40
2022-09-13T14:18:51.141Z,3.78
2022-09-13T14:19:55.443Z,3.90
2022-09-13T14:20:59.057Z,3.47
2022-09-13T14:22:21.108Z,3.35
2022-09-13T14:23:22.594Z,3.72
2022-09-13T14:24:24.942Z,3.83
2022-09-13T14:25:26.596Z,3.58
2022-09-13T14:26:28.235Z,3.78
2022-09-13T14:27:35.735Z,3.72
2022-09-13T14:28:37.468Z,3.47
2022-09-13T14:29:39.298Z,3.65
2022-09-13T14:30:40.864Z,3.78
2022-09-13T14:31:47.208Z,4.03
2022-09-13T14:32:52.991Z,4.00
2022-09-13T14:33:54.435Z,3.80
2022-09-13T14:35:05.342Z,3.67
2022-09-13T14:36:15.897Z,3.92
2022-09-13T14:37:23.613Z,3.75
2022-09-13T14:38:33.488Z,4.07
2022-09-13T14:39:35.134Z,3.90
2022-09-13T14:40:38.397Z,4.43
2022-09-13T14:41:40.367Z,4.05
2022-09-13T14:42:44.456Z,3.60
2022-09-13T14:43:48.394Z,3.92
2022-09-13T14:44:50.424Z,3.80
2022-09-13T14:46:09.498Z,4.20
2022-09-13T14:47:25.958Z,4.05
2022-09-13T14:48:37.273Z,4.65
2022-09-13T14:49:49.185Z,4.20
2022-09-13T14:50:57.513Z,3.80
2022-09-13T14:52:08.209Z,4.10
2022-09-13T14:53:18.580Z,3.97
2022-09-13T14:54:22.479Z,3.85
2022-09-13T14:55:35.198Z,3.88
2022-09-13T14:56:40.550Z,3.90
2022-09-13T14:57:52.819Z,3.90
2022-09-13T14:58:57.845Z,3.50
2022-09-13T15:00:19.038Z,3.90
2022-09-13T15:01:26.578Z,3.90
2022-09-13T15:02:32.534Z,4.05
2022-09-13T15:03:34.249Z,3.75
2022-09-13T15:04:43.253Z,3.80
2022-09-13T15:05:57.213Z,4.55
2022-09-13T15:07:21.858Z,3.80
2022-09-13T15:08:33.528Z,4.30
2022-09-13T15:09:37.627Z,4.25
2022-09-13T15:10:44.000Z,3.83
2022-09-13T15:11:56.672Z,3.83
2022-09-13T15:12:58.243Z,4.00
2022-09-13T15:14:09.466Z,3.70
2022-09-13T15:15:19.002Z,3.80
2022-09-13T15:16:26.115Z,3.67
2022-09-13T15:17:27.594Z,3.97
2022-09-13T15:18:36.467Z,4.07
2022-09-13T15:19:43.606Z,3.97
2022-09-13T15:20:49.708Z,3.97
2022-09-13T15:21:51.305Z,4.25
2022-09-13T15:22:53.977Z,3.95
2022-09-13T15:23:55.392Z,3.67